sensor_id;sensor_type;location;lat;lon;timestamp;temperature;humidity
64718;DHT22;62506;46.070;14.492;2023-04-07T00:01:31;21.40;47.80
64718;DHT22;62506;46.070;14.492;2023-04-07T00:03:57;21.40;47.80
64718;DHT22;62506;46.070;14.492;2023-04-07T00:06:22;21.40;47.80
64718;DHT22;62506;46.070;14.492;2023-04-07T00:08:48;21.40;47.80
64718;DHT22;62506;46.070;14.492;2023-04-07T00:11:13;21.40;47.90
64718;DHT22;62506;46.070;14.492;2023-04-07T00:13:39;21.40;47.90
64718;DHT22;62506;46.070;14.492;2023-04-07T00:16:04;21.40;47.90
64718;DHT22;62506;46.070;14.492;2023-04-07T00:18:30;21.30;47.90
64718;DHT22;62506;46.070;14.492;2023-04-07T00:20:56;21.30;47.90
64718;DHT22;62506;46.070;14.492;2023-04-07T00:23:21;21.30;47.90
64718;DHT22;62506;46.070;14.492;2023-04-07T00:25:47;21.30;47.90
64718;DHT22;62506;46.070;14.492;2023-04-07T00:28:13;21.30;48.00
64718;DHT22;62506;46.070;14.492;2023-04-07T00:30:38;21.30;48.00
64718;DHT22;62506;46.070;14.492;2023-04-07T00:33:04;21.30;48.00
64718;DHT22;62506;46.070;14.492;2023-04-07T00:35:29;21.30;48.10
64718;DHT22;62506;46.070;14.492;2023-04-07T00:37:55;21.30;48.10
64718;DHT22;62506;46.070;14.492;2023-04-07T00:40:21;21.30;48.10
64718;DHT22;62506;46.070;14.492;2023-04-07T00:42:46;21.20;48.00
64718;DHT22;62506;46.070;14.492;2023-04-07T00:45:12;21.20;48.00
64718;DHT22;62506;46.070;14.492;2023-04-07T00:47:38;21.20;48.00
64718;DHT22;62506;46.070;14.492;2023-04-07T00:50:03;21.20;48.00
64718;DHT22;62506;46.070;14.492;2023-04-07T00:52:30;21.20;48.00
64718;DHT22;62506;46.070;14.492;2023-04-07T00:54:56;21.20;48.10
64718;DHT22;62506;46.070;14.492;2023-04-07T00:57:22;21.20;48.10
64718;DHT22;62506;46.070;14.492;2023-04-07T00:59:48;21.20;48.00
64718;DHT22;62506;46.070;14.492;2023-04-07T01:02:27;21.20;48.00
64718;DHT22;62506;46.070;14.492;2023-04-07T01:04:58;21.20;47.90
64718;DHT22;62506;46.070;14.492;2023-04-07T01:08:13;21.30;47.90
64718;DHT22;62506;46.070;14.492;2023-04-07T01:10:15;21.30;47.90
64718;DHT22;62506;46.070;14.492;2023-04-07T01:12:48;21.30;48.60
64718;DHT22;62506;46.070;14.492;2023-04-07T01:15:15;21.30;47.90
64718;DHT22;62506;46.070;14.492;2023-04-07T01:17:44;21.30;47.90
64718;DHT22;62506;46.070;14.492;2023-04-07T01:20:13;21.30;47.80
64718;DHT22;62506;46.070;14.492;2023-04-07T01:22:42;21.20;47.80
64718;DHT22;62506;46.070;14.492;2023-04-07T01:30:03;21.20;47.80
64718;DHT22;62506;46.070;14.492;2023-04-07T01:32:29;21.20;47.90
64718;DHT22;62506;46.070;14.492;2023-04-07T01:34:56;21.20;48.00
64718;DHT22;62506;46.070;14.492;2023-04-07T01:37:22;21.20;48.00
64718;DHT22;62506;46.070;14.492;2023-04-07T01:39:49;21.20;48.10
64718;DHT22;62506;46.070;14.492;2023-04-07T01:42:15;21.20;48.10
64718;DHT22;62506;46.070;14.492;2023-04-07T01:44:41;21.20;48.10
64718;DHT22;62506;46.070;14.492;2023-04-07T01:47:07;21.20;48.10
64718;DHT22;62506;46.070;14.492;2023-04-07T01:49:33;21.10;48.10
64718;DHT22;62506;46.070;14.492;2023-04-07T01:51:59;21.10;48.10
64718;DHT22;62506;46.070;14.492;2023-04-07T01:54:25;21.10;48.10
64718;DHT22;62506;46.070;14.492;2023-04-07T01:56:51;21.10;48.10
64718;DHT22;62506;46.070;14.492;2023-04-07T01:59:17;21.10;48.10
64718;DHT22;62506;46.070;14.492;2023-04-07T02:01:42;21.10;48.20
64718;DHT22;62506;46.070;14.492;2023-04-07T02:04:29;21.10;48.20
64718;DHT22;62506;46.070;14.492;2023-04-07T02:06:58;21.10;48.20
64718;DHT22;62506;46.070;14.492;2023-04-07T02:09:25;21.10;48.20
64718;DHT22;62506;46.070;14.492;2023-04-07T02:11:52;21.10;48.20
64718;DHT22;62506;46.070;14.492;2023-04-07T02:14:20;21.10;48.20
64718;DHT22;62506;46.070;14.492;2023-04-07T02:16:46;21.10;48.20
64718;DHT22;62506;46.070;14.492;2023-04-07T02:19:13;21.20;48.10
64718;DHT22;62506;46.070;14.492;2023-04-07T02:21:38;21.10;48.10
64718;DHT22;62506;46.070;14.492;2023-04-07T02:24:05;21.10;48.00
64718;DHT22;62506;46.070;14.492;2023-04-07T02:26:34;21.10;48.00
64718;DHT22;62506;46.070;14.492;2023-04-07T02:29:00;21.10;48.00
64718;DHT22;62506;46.070;14.492;2023-04-07T02:31:26;21.10;48.00
64718;DHT22;62506;46.070;14.492;2023-04-07T02:33:51;21.10;48.00
64718;DHT22;62506;46.070;14.492;2023-04-07T02:36:17;21.10;48.70
64718;DHT22;62506;46.070;14.492;2023-04-07T02:38:42;21.20;48.00
64718;DHT22;62506;46.070;14.492;2023-04-07T02:41:08;21.10;48.00
64718;DHT22;62506;46.070;14.492;2023-04-07T02:43:33;21.10;48.00
64718;DHT22;62506;46.070;14.492;2023-04-07T02:45:59;21.10;48.00
64718;DHT22;62506;46.070;14.492;2023-04-07T02:48:24;21.10;48.00
64718;DHT22;62506;46.070;14.492;2023-04-07T02:50:50;21.10;48.00
64718;DHT22;62506;46.070;14.492;2023-04-07T02:53:15;21.10;48.00
64718;DHT22;62506;46.070;14.492;2023-04-07T02:55:41;21.10;48.00
64718;DHT22;62506;46.070;14.492;2023-04-07T02:58:06;21.10;48.00
64718;DHT22;62506;46.070;14.492;2023-04-07T03:00:32;21.10;48.00
64718;DHT22;62506;46.070;14.492;2023-04-07T03:02:58;21.10;48.00
64718;DHT22;62506;46.070;14.492;2023-04-07T03:05:23;21.10;48.00
64718;DHT22;62506;46.070;14.492;2023-04-07T03:07:49;21.10;48.00
64718;DHT22;62506;46.070;14.492;2023-04-07T03:10:14;21.10;47.90
64718;DHT22;62506;46.070;14.492;2023-04-07T03:12:40;21.10;47.90
64718;DHT22;62506;46.070;14.492;2023-04-07T03:15:06;21.10;48.00
64718;DHT22;62506;46.070;14.492;2023-04-07T03:17:32;21.10;48.00
64718;DHT22;62506;46.070;14.492;2023-04-07T03:19:57;21.10;48.00
64718;DHT22;62506;46.070;14.492;2023-04-07T03:22:23;21.10;48.00
64718;DHT22;62506;46.070;14.492;2023-04-07T03:24:48;21.10;48.00
64718;DHT22;62506;46.070;14.492;2023-04-07T03:27:14;21.10;48.00
64718;DHT22;62506;46.070;14.492;2023-04-07T03:29:41;21.10;48.10
64718;DHT22;62506;46.070;14.492;2023-04-07T03:32:07;21.10;48.20
64718;DHT22;62506;46.070;14.492;2023-04-07T03:34:33;21.10;48.10
64718;DHT22;62506;46.070;14.492;2023-04-07T03:36:58;21.10;47.90
64718;DHT22;62506;46.070;14.492;2023-04-07T03:39:24;21.10;47.90
64718;DHT22;62506;46.070;14.492;2023-04-07T03:41:50;21.10;47.60
64718;DHT22;62506;46.070;14.492;2023-04-07T03:44:16;21.10;47.60
64718;DHT22;62506;46.070;14.492;2023-04-07T03:46:41;21.20;47.60
64718;DHT22;62506;46.070;14.492;2023-04-07T03:49:07;21.20;47.50
64718;DHT22;62506;46.070;14.492;2023-04-07T03:51:32;21.20;47.40
64718;DHT22;62506;46.070;14.492;2023-04-07T03:53:58;21.20;47.40
64718;DHT22;62506;46.070;14.492;2023-04-07T03:56:24;21.20;47.60
64718;DHT22;62506;46.070;14.492;2023-04-07T03:58:49;21.20;47.40
64718;DHT22;62506;46.070;14.492;2023-04-07T04:01:15;21.20;47.30
64718;DHT22;62506;46.070;14.492;2023-04-07T04:03:41;21.30;47.50
64718;DHT22;62506;46.070;14.492;2023-04-07T04:06:06;21.30;47.80
64718;DHT22;62506;46.070;14.492;2023-04-07T04:08:32;21.30;48.10
64718;DHT22;62506;46.070;14.492;2023-04-07T04:10:57;21.30;48.00
64718;DHT22;62506;46.070;14.492;2023-04-07T04:13:23;21.30;47.90
64718;DHT22;62506;46.070;14.492;2023-04-07T04:15:49;21.30;48.10
64718;DHT22;62506;46.070;14.492;2023-04-07T04:18:14;21.40;48.20
64718;DHT22;62506;46.070;14.492;2023-04-07T04:20:41;21.40;48.50
64718;DHT22;62506;46.070;14.492;2023-04-07T04:23:07;21.40;48.80
64718;DHT22;62506;46.070;14.492;2023-04-07T04:25:32;21.40;48.70
64718;DHT22;62506;46.070;14.492;2023-04-07T04:27:58;21.40;48.90
64718;DHT22;62506;46.070;14.492;2023-04-07T04:30:23;21.40;48.80
64718;DHT22;62506;46.070;14.492;2023-04-07T04:32:49;21.50;49.50
64718;DHT22;62506;46.070;14.492;2023-04-07T04:35:15;21.50;48.80
64718;DHT22;62506;46.070;14.492;2023-04-07T04:37:40;21.50;48.80
64718;DHT22;62506;46.070;14.492;2023-04-07T04:40:06;21.50;48.80
64718;DHT22;62506;46.070;14.492;2023-04-07T04:42:35;21.50;48.70
64718;DHT22;62506;46.070;14.492;2023-04-07T04:45:01;21.50;48.60
64718;DHT22;62506;46.070;14.492;2023-04-07T04:47:26;21.50;48.90
64718;DHT22;62506;46.070;14.492;2023-04-07T04:49:52;21.50;49.10
64718;DHT22;62506;46.070;14.492;2023-04-07T04:52:18;21.50;48.80
64718;DHT22;62506;46.070;14.492;2023-04-07T04:54:43;21.50;48.60
64718;DHT22;62506;46.070;14.492;2023-04-07T04:57:09;21.50;48.50
64718;DHT22;62506;46.070;14.492;2023-04-07T04:59:34;21.50;48.20
64718;DHT22;62506;46.070;14.492;2023-04-07T05:02:00;21.50;48.30
64718;DHT22;62506;46.070;14.492;2023-04-07T05:04:26;21.40;48.10
64718;DHT22;62506;46.070;14.492;2023-04-07T05:06:52;21.40;48.20
64718;DHT22;62506;46.070;14.492;2023-04-07T05:09:18;21.40;48.10
64718;DHT22;62506;46.070;14.492;2023-04-07T05:11:43;21.40;48.00
64718;DHT22;62506;46.070;14.492;2023-04-07T05:14:09;21.40;48.00
64718;DHT22;62506;46.070;14.492;2023-04-07T05:16:34;21.40;48.00
64718;DHT22;62506;46.070;14.492;2023-04-07T05:19:00;21.40;48.50
64718;DHT22;62506;46.070;14.492;2023-04-07T05:21:26;21.40;47.80
64718;DHT22;62506;46.070;14.492;2023-04-07T05:23:52;21.40;47.80
64718;DHT22;62506;46.070;14.492;2023-04-07T05:26:17;21.40;47.80
64718;DHT22;62506;46.070;14.492;2023-04-07T05:28:43;21.40;47.80
64718;DHT22;62506;46.070;14.492;2023-04-07T05:31:08;21.40;47.60
64718;DHT22;62506;46.070;14.492;2023-04-07T05:33:34;21.40;47.70
64718;DHT22;62506;46.070;14.492;2023-04-07T05:35:59;21.30;47.50
64718;DHT22;62506;46.070;14.492;2023-04-07T05:38:25;21.40;47.60
64718;DHT22;62506;46.070;14.492;2023-04-07T05:40:50;21.40;47.90
64718;DHT22;62506;46.070;14.492;2023-04-07T05:43:16;21.30;46.80
64718;DHT22;62506;46.070;14.492;2023-04-07T05:45:41;21.30;47.20
64718;DHT22;62506;46.070;14.492;2023-04-07T05:48:07;21.30;46.50
64718;DHT22;62506;46.070;14.492;2023-04-07T05:50:32;21.30;46.40
64718;DHT22;62506;46.070;14.492;2023-04-07T05:52:58;21.30;46.60
64718;DHT22;62506;46.070;14.492;2023-04-07T05:55:23;21.30;46.90
64718;DHT22;62506;46.070;14.492;2023-04-07T05:57:49;21.30;47.30
64718;DHT22;62506;46.070;14.492;2023-04-07T06:00:14;21.30;47.30
64718;DHT22;62506;46.070;14.492;2023-04-07T06:02:40;21.30;47.40
64718;DHT22;62506;46.070;14.492;2023-04-07T06:05:06;21.30;47.40
64718;DHT22;62506;46.070;14.492;2023-04-07T06:07:31;21.30;47.50
64718;DHT22;62506;46.070;14.492;2023-04-07T06:09:57;21.30;45.80
64718;DHT22;62506;46.070;14.492;2023-04-07T06:12:22;21.30;46.40
64718;DHT22;62506;46.070;14.492;2023-04-07T06:14:51;21.30;46.80
64718;DHT22;62506;46.070;14.492;2023-04-07T06:17:18;21.30;47.10
64718;DHT22;62506;46.070;14.492;2023-04-07T06:19:43;21.30;47.10
64718;DHT22;62506;46.070;14.492;2023-04-07T06:22:09;21.30;47.00
64718;DHT22;62506;46.070;14.492;2023-04-07T06:24:35;21.30;47.00
64718;DHT22;62506;46.070;14.492;2023-04-07T06:27:01;21.30;47.00
64718;DHT22;62506;46.070;14.492;2023-04-07T06:29:28;21.30;47.00
64718;DHT22;62506;46.070;14.492;2023-04-07T06:31:54;21.30;46.90
64718;DHT22;62506;46.070;14.492;2023-04-07T06:34:20;21.30;47.00
64718;DHT22;62506;46.070;14.492;2023-04-07T06:36:45;21.30;46.90
64718;DHT22;62506;46.070;14.492;2023-04-07T06:39:11;21.30;47.00
64718;DHT22;62506;46.070;14.492;2023-04-07T06:41:36;21.30;47.00
64718;DHT22;62506;46.070;14.492;2023-04-07T06:44:03;21.30;47.00
64718;DHT22;62506;46.070;14.492;2023-04-07T06:46:28;21.30;47.00
64718;DHT22;62506;46.070;14.492;2023-04-07T06:48:54;21.30;46.90
64718;DHT22;62506;46.070;14.492;2023-04-07T06:51:20;21.30;46.90
64718;DHT22;62506;46.070;14.492;2023-04-07T06:53:45;21.30;46.80
64718;DHT22;62506;46.070;14.492;2023-04-07T06:56:12;21.30;46.90
64718;DHT22;62506;46.070;14.492;2023-04-07T06:58:38;21.30;47.30
64718;DHT22;62506;46.070;14.492;2023-04-07T07:01:04;21.30;47.00
64718;DHT22;62506;46.070;14.492;2023-04-07T07:03:30;21.30;47.00
64718;DHT22;62506;46.070;14.492;2023-04-07T07:05:59;21.30;47.00
64718;DHT22;62506;46.070;14.492;2023-04-07T07:08:25;21.30;46.90
64718;DHT22;62506;46.070;14.492;2023-04-07T07:10:50;21.30;47.00
64718;DHT22;62506;46.070;14.492;2023-04-07T07:13:17;21.30;46.90
64718;DHT22;62506;46.070;14.492;2023-04-07T07:15:42;21.30;46.90
64718;DHT22;62506;46.070;14.492;2023-04-07T07:18:08;21.30;46.80
64718;DHT22;62506;46.070;14.492;2023-04-07T07:20:33;21.30;46.80
64718;DHT22;62506;46.070;14.492;2023-04-07T07:22:59;21.30;46.80
64718;DHT22;62506;46.070;14.492;2023-04-07T07:25:24;21.30;46.70
64718;DHT22;62506;46.070;14.492;2023-04-07T07:27:53;21.30;46.70
64718;DHT22;62506;46.070;14.492;2023-04-07T07:30:20;21.30;46.80
64718;DHT22;62506;46.070;14.492;2023-04-07T07:32:45;21.30;46.70
64718;DHT22;62506;46.070;14.492;2023-04-07T07:35:11;21.40;46.70
64718;DHT22;62506;46.070;14.492;2023-04-07T07:37:36;21.30;45.10
64718;DHT22;62506;46.070;14.492;2023-04-07T07:40:02;21.30;45.80
64718;DHT22;62506;46.070;14.492;2023-04-07T07:42:28;21.30;46.20
64718;DHT22;62506;46.070;14.492;2023-04-07T07:44:54;21.30;45.80
64718;DHT22;62506;46.070;14.492;2023-04-07T07:47:20;21.40;46.00
64718;DHT22;62506;46.070;14.492;2023-04-07T07:49:46;21.40;46.80
64718;DHT22;62506;46.070;14.492;2023-04-07T07:52:11;21.40;46.10
64718;DHT22;62506;46.070;14.492;2023-04-07T07:54:37;21.40;45.90
64718;DHT22;62506;46.070;14.492;2023-04-07T07:57:02;21.40;45.70
64718;DHT22;62506;46.070;14.492;2023-04-07T07:59:29;21.40;45.80
64718;DHT22;62506;46.070;14.492;2023-04-07T08:01:54;21.40;45.90
64718;DHT22;62506;46.070;14.492;2023-04-07T08:04:20;21.40;45.80
64718;DHT22;62506;46.070;14.492;2023-04-07T08:06:47;21.50;45.80
64718;DHT22;62506;46.070;14.492;2023-04-07T08:09:13;21.50;45.90
64718;DHT22;62506;46.070;14.492;2023-04-07T08:11:39;21.50;45.70
64718;DHT22;62506;46.070;14.492;2023-04-07T08:14:05;21.50;45.70
64718;DHT22;62506;46.070;14.492;2023-04-07T08:16:31;21.50;45.70
64718;DHT22;62506;46.070;14.492;2023-04-07T08:18:57;21.50;45.70
64718;DHT22;62506;46.070;14.492;2023-04-07T08:21:25;21.50;45.70
64718;DHT22;62506;46.070;14.492;2023-04-07T08:23:52;21.50;45.70
64718;DHT22;62506;46.070;14.492;2023-04-07T08:26:18;21.50;45.60
64718;DHT22;62506;46.070;14.492;2023-04-07T08:28:43;21.50;45.60
64718;DHT22;62506;46.070;14.492;2023-04-07T08:31:09;21.50;45.60
64718;DHT22;62506;46.070;14.492;2023-04-07T08:33:35;21.50;45.60
64718;DHT22;62506;46.070;14.492;2023-04-07T08:36:00;21.50;45.60
64718;DHT22;62506;46.070;14.492;2023-04-07T08:38:26;21.50;45.60
64718;DHT22;62506;46.070;14.492;2023-04-07T08:40:54;21.50;45.60
64718;DHT22;62506;46.070;14.492;2023-04-07T08:43:21;21.50;45.50
64718;DHT22;62506;46.070;14.492;2023-04-07T08:45:48;21.50;45.50
64718;DHT22;62506;46.070;14.492;2023-04-07T08:48:17;21.60;45.50
64718;DHT22;62506;46.070;14.492;2023-04-07T08:50:45;21.60;45.70
64718;DHT22;62506;46.070;14.492;2023-04-07T08:53:13;21.50;44.80
64718;DHT22;62506;46.070;14.492;2023-04-07T08:55:42;21.50;44.90
64718;DHT22;62506;46.070;14.492;2023-04-07T08:58:08;21.50;44.80
64718;DHT22;62506;46.070;14.492;2023-04-07T09:00:37;21.60;45.30
64718;DHT22;62506;46.070;14.492;2023-04-07T09:03:03;21.60;44.90
64718;DHT22;62506;46.070;14.492;2023-04-07T09:05:30;21.60;45.00
64718;DHT22;62506;46.070;14.492;2023-04-07T09:07:56;21.60;45.90
64718;DHT22;62506;46.070;14.492;2023-04-07T09:10:22;21.50;45.10
64718;DHT22;62506;46.070;14.492;2023-04-07T09:12:47;21.60;45.20
64718;DHT22;62506;46.070;14.492;2023-04-07T09:15:13;21.60;45.30
64718;DHT22;62506;46.070;14.492;2023-04-07T09:17:38;21.60;45.30
64718;DHT22;62506;46.070;14.492;2023-04-07T09:20:04;21.50;45.30
64718;DHT22;62506;46.070;14.492;2023-04-07T09:25:08;21.60;45.30
64718;DHT22;62506;46.070;14.492;2023-04-07T09:27:34;21.60;45.40
64718;DHT22;62506;46.070;14.492;2023-04-07T09:30:09;21.60;45.30
64718;DHT22;62506;46.070;14.492;2023-04-07T09:32:36;21.60;45.30
64718;DHT22;62506;46.070;14.492;2023-04-07T09:35:05;21.60;45.30
64718;DHT22;62506;46.070;14.492;2023-04-07T09:37:31;21.60;45.40
64718;DHT22;62506;46.070;14.492;2023-04-07T09:39:57;21.60;45.40
64718;DHT22;62506;46.070;14.492;2023-04-07T09:42:22;21.60;45.40
64718;DHT22;62506;46.070;14.492;2023-04-07T09:44:48;21.60;45.50
64718;DHT22;62506;46.070;14.492;2023-04-07T09:47:13;21.60;45.50
64718;DHT22;62506;46.070;14.492;2023-04-07T09:49:49;21.60;45.50
64718;DHT22;62506;46.070;14.492;2023-04-07T09:52:16;21.60;45.60
64718;DHT22;62506;46.070;14.492;2023-04-07T09:54:45;21.50;45.70
64718;DHT22;62506;46.070;14.492;2023-04-07T09:57:11;21.50;45.80
64718;DHT22;62506;46.070;14.492;2023-04-07T09:59:38;21.50;45.90
64718;DHT22;62506;46.070;14.492;2023-04-07T10:02:07;21.50;45.80
64718;DHT22;62506;46.070;14.492;2023-04-07T10:04:32;21.50;45.80
64718;DHT22;62506;46.070;14.492;2023-04-07T10:06:58;21.50;45.70
64718;DHT22;62506;46.070;14.492;2023-04-07T10:09:25;21.50;45.80
64718;DHT22;62506;46.070;14.492;2023-04-07T10:11:51;21.50;45.70
64718;DHT22;62506;46.070;14.492;2023-04-07T10:14:17;21.50;45.90
64718;DHT22;62506;46.070;14.492;2023-04-07T10:16:43;21.50;45.90
64718;DHT22;62506;46.070;14.492;2023-04-07T10:19:09;21.50;45.90
64718;DHT22;62506;46.070;14.492;2023-04-07T10:21:36;21.50;46.00
64718;DHT22;62506;46.070;14.492;2023-04-07T10:24:13;21.50;46.00
64718;DHT22;62506;46.070;14.492;2023-04-07T10:26:49;21.50;46.00
64718;DHT22;62506;46.070;14.492;2023-04-07T10:29:16;21.50;46.00
64718;DHT22;62506;46.070;14.492;2023-04-07T10:31:42;21.50;46.00
64718;DHT22;62506;46.070;14.492;2023-04-07T10:34:07;21.50;46.00
64718;DHT22;62506;46.070;14.492;2023-04-07T10:36:33;21.50;46.10
64718;DHT22;62506;46.070;14.492;2023-04-07T10:43:59;21.40;46.30
64718;DHT22;62506;46.070;14.492;2023-04-07T10:46:30;21.50;46.50
64718;DHT22;62506;46.070;14.492;2023-04-07T10:49:14;21.40;44.00
64718;DHT22;62506;46.070;14.492;2023-04-07T10:51:40;21.40;45.10
64718;DHT22;62506;46.070;14.492;2023-04-07T10:54:16;21.40;45.80
64718;DHT22;62506;46.070;14.492;2023-04-07T10:59:26;21.40;46.30
64718;DHT22;62506;46.070;14.492;2023-04-07T11:04:36;21.50;46.30
64718;DHT22;62506;46.070;14.492;2023-04-07T11:07:02;21.50;46.20
64718;DHT22;62506;46.070;14.492;2023-04-07T11:09:28;21.50;46.20
64718;DHT22;62506;46.070;14.492;2023-04-07T11:11:53;21.50;46.20
64718;DHT22;62506;46.070;14.492;2023-04-07T11:14:28;21.50;46.10
64718;DHT22;62506;46.070;14.492;2023-04-07T11:16:54;21.50;46.10
64718;DHT22;62506;46.070;14.492;2023-04-07T11:19:20;21.50;46.10
64718;DHT22;62506;46.070;14.492;2023-04-07T11:21:46;21.50;46.10
64718;DHT22;62506;46.070;14.492;2023-04-07T11:26:55;21.50;46.00
64718;DHT22;62506;46.070;14.492;2023-04-07T11:29:30;21.50;46.00
64718;DHT22;62506;46.070;14.492;2023-04-07T11:32:00;21.50;46.00
64718;DHT22;62506;46.070;14.492;2023-04-07T11:34:32;21.50;45.90
64718;DHT22;62506;46.070;14.492;2023-04-07T11:36:58;21.50;46.50
64718;DHT22;62506;46.070;14.492;2023-04-07T11:39:42;21.50;45.90
64718;DHT22;62506;46.070;14.492;2023-04-07T11:42:10;21.50;45.90
64718;DHT22;62506;46.070;14.492;2023-04-07T11:44:43;21.50;45.90
64718;DHT22;62506;46.070;14.492;2023-04-07T11:47:09;21.50;45.80
64718;DHT22;62506;46.070;14.492;2023-04-07T11:49:35;21.50;45.80
64718;DHT22;62506;46.070;14.492;2023-04-07T11:52:08;21.50;45.70
64718;DHT22;62506;46.070;14.492;2023-04-07T11:54:43;21.50;45.90
64718;DHT22;62506;46.070;14.492;2023-04-07T11:57:11;21.50;46.10
64718;DHT22;62506;46.070;14.492;2023-04-07T11:59:37;21.50;45.70
64718;DHT22;62506;46.070;14.492;2023-04-07T12:02:03;21.50;45.50
64718;DHT22;62506;46.070;14.492;2023-04-07T12:04:28;21.50;45.50
64718;DHT22;62506;46.070;14.492;2023-04-07T12:06:58;21.50;45.70
64718;DHT22;62506;46.070;14.492;2023-04-07T12:09:31;21.50;45.80
64718;DHT22;62506;46.070;14.492;2023-04-07T12:12:00;21.50;45.80
64718;DHT22;62506;46.070;14.492;2023-04-07T12:14:26;21.50;45.90
64718;DHT22;62506;46.070;14.492;2023-04-07T12:16:52;21.50;46.00
64718;DHT22;62506;46.070;14.492;2023-04-07T12:19:21;21.50;45.70
64718;DHT22;62506;46.070;14.492;2023-04-07T12:21:47;21.50;46.00
64718;DHT22;62506;46.070;14.492;2023-04-07T12:24:12;21.50;46.50
64718;DHT22;62506;46.070;14.492;2023-04-07T12:26:38;21.50;47.30
64718;DHT22;62506;46.070;14.492;2023-04-07T12:29:04;21.50;45.10
64718;DHT22;62506;46.070;14.492;2023-04-07T12:31:32;21.50;45.50
64718;DHT22;62506;46.070;14.492;2023-04-07T12:33:58;21.40;46.10
64718;DHT22;62506;46.070;14.492;2023-04-07T12:36:24;21.40;46.50
64718;DHT22;62506;46.070;14.492;2023-04-07T12:38:54;21.40;46.60
64718;DHT22;62506;46.070;14.492;2023-04-07T12:41:19;21.40;46.50
64718;DHT22;62506;46.070;14.492;2023-04-07T12:43:45;21.40;46.40
64718;DHT22;62506;46.070;14.492;2023-04-07T12:46:11;21.40;46.40
64718;DHT22;62506;46.070;14.492;2023-04-07T12:48:36;21.40;46.40
64718;DHT22;62506;46.070;14.492;2023-04-07T12:51:02;21.40;46.40
64718;DHT22;62506;46.070;14.492;2023-04-07T12:53:27;21.40;46.30
64718;DHT22;62506;46.070;14.492;2023-04-07T12:55:53;21.30;46.20
64718;DHT22;62506;46.070;14.492;2023-04-07T12:58:18;21.40;46.40
64718;DHT22;62506;46.070;14.492;2023-04-07T13:00:44;21.40;46.20
64718;DHT22;62506;46.070;14.492;2023-04-07T13:03:11;21.40;46.20
64718;DHT22;62506;46.070;14.492;2023-04-07T13:05:36;21.40;46.10
64718;DHT22;62506;46.070;14.492;2023-04-07T13:08:02;21.30;46.00
64718;DHT22;62506;46.070;14.492;2023-04-07T13:10:28;21.30;46.00
64718;DHT22;62506;46.070;14.492;2023-04-07T13:12:53;21.30;45.90
64718;DHT22;62506;46.070;14.492;2023-04-07T13:15:19;21.30;45.80
64718;DHT22;62506;46.070;14.492;2023-04-07T13:17:45;21.30;45.80
64718;DHT22;62506;46.070;14.492;2023-04-07T13:20:10;21.30;45.70
64718;DHT22;62506;46.070;14.492;2023-04-07T13:22:36;21.30;45.70
64718;DHT22;62506;46.070;14.492;2023-04-07T13:25:02;21.30;45.80
64718;DHT22;62506;46.070;14.492;2023-04-07T13:27:27;21.30;45.70
64718;DHT22;62506;46.070;14.492;2023-04-07T13:29:53;21.30;45.70
64718;DHT22;62506;46.070;14.492;2023-04-07T13:32:18;21.30;45.80
64718;DHT22;62506;46.070;14.492;2023-04-07T13:34:44;21.30;45.70
64718;DHT22;62506;46.070;14.492;2023-04-07T13:37:10;21.30;45.70
64718;DHT22;62506;46.070;14.492;2023-04-07T13:39:36;21.30;45.60
64718;DHT22;62506;46.070;14.492;2023-04-07T13:42:01;21.30;45.60
64718;DHT22;62506;46.070;14.492;2023-04-07T13:44:27;21.30;45.50
64718;DHT22;62506;46.070;14.492;2023-04-07T13:46:53;21.30;45.40
64718;DHT22;62506;46.070;14.492;2023-04-07T13:49:19;21.30;45.10
64718;DHT22;62506;46.070;14.492;2023-04-07T13:51:45;21.30;45.90
64718;DHT22;62506;46.070;14.492;2023-04-07T13:54:10;21.30;45.10
64718;DHT22;62506;46.070;14.492;2023-04-07T13:56:36;21.30;45.10
64718;DHT22;62506;46.070;14.492;2023-04-07T13:59:03;21.30;45.30
64718;DHT22;62506;46.070;14.492;2023-04-07T14:01:29;21.30;45.10
64718;DHT22;62506;46.070;14.492;2023-04-07T14:03:54;21.40;44.90
64718;DHT22;62506;46.070;14.492;2023-04-07T14:06:21;21.40;44.50
64718;DHT22;62506;46.070;14.492;2023-04-07T14:08:49;21.40;44.60
64718;DHT22;62506;46.070;14.492;2023-04-07T14:11:18;21.40;45.30
64718;DHT22;62506;46.070;14.492;2023-04-07T14:13:44;21.50;45.10
64718;DHT22;62506;46.070;14.492;2023-04-07T14:16:10;21.50;44.90
64718;DHT22;62506;46.070;14.492;2023-04-07T14:18:35;21.60;45.30
64718;DHT22;62506;46.070;14.492;2023-04-07T14:21:01;21.70;45.40
64718;DHT22;62506;46.070;14.492;2023-04-07T14:23:27;21.70;45.20
64718;DHT22;62506;46.070;14.492;2023-04-07T14:25:53;21.80;45.00
64718;DHT22;62506;46.070;14.492;2023-04-07T14:28:19;21.80;45.30
64718;DHT22;62506;46.070;14.492;2023-04-07T14:30:45;21.90;44.00
64718;DHT22;62506;46.070;14.492;2023-04-07T14:33:11;21.90;44.30
64718;DHT22;62506;46.070;14.492;2023-04-07T14:35:37;21.90;44.30
64718;DHT22;62506;46.070;14.492;2023-04-07T14:38:02;21.90;44.40
64718;DHT22;62506;46.070;14.492;2023-04-07T14:40:28;22.00;44.50
64718;DHT22;62506;46.070;14.492;2023-04-07T14:42:53;22.00;45.10
64718;DHT22;62506;46.070;14.492;2023-04-07T14:45:20;22.00;45.10
64718;DHT22;62506;46.070;14.492;2023-04-07T14:47:45;22.10;45.00
64718;DHT22;62506;46.070;14.492;2023-04-07T14:50:11;22.10;44.80
64718;DHT22;62506;46.070;14.492;2023-04-07T14:52:37;22.10;44.60
64718;DHT22;62506;46.070;14.492;2023-04-07T14:55:02;22.10;45.50
64718;DHT22;62506;46.070;14.492;2023-04-07T14:57:28;22.20;45.00
64718;DHT22;62506;46.070;14.492;2023-04-07T14:59:53;22.20;44.60
64718;DHT22;62506;46.070;14.492;2023-04-07T15:02:19;22.10;44.40
64718;DHT22;62506;46.070;14.492;2023-04-07T15:04:44;22.20;44.80
64718;DHT22;62506;46.070;14.492;2023-04-07T15:07:10;22.20;44.70
64718;DHT22;62506;46.070;14.492;2023-04-07T15:09:35;22.20;44.60
64718;DHT22;62506;46.070;14.492;2023-04-07T15:12:01;22.20;44.60
64718;DHT22;62506;46.070;14.492;2023-04-07T15:14:27;22.20;44.80
64718;DHT22;62506;46.070;14.492;2023-04-07T15:16:52;22.20;45.00
64718;DHT22;62506;46.070;14.492;2023-04-07T15:19:18;22.20;44.90
64718;DHT22;62506;46.070;14.492;2023-04-07T15:21:43;22.20;44.80
64718;DHT22;62506;46.070;14.492;2023-04-07T15:24:09;22.20;44.80
64718;DHT22;62506;46.070;14.492;2023-04-07T15:26:34;22.20;44.90
64718;DHT22;62506;46.070;14.492;2023-04-07T15:29:00;22.20;44.90
64718;DHT22;62506;46.070;14.492;2023-04-07T15:31:25;22.20;44.70